SBCT/CWB METAR and TAF weather

Enter ICAO airport designator
Station Type Date Time Source
SBCT METAR 2020/04/05 15:00 UTC NOAA

SBCT 051500Z 03006KT CAVOK 23/12 Q1019


Station Type Date Time Source
SBCT Decoded METAR 2020/04/05 15:00 UTC NOAA

Curitiba Aeroporto , Brazil (SBCT) 25-31S 049-10W 908M
Apr 05, 2020 - 11:00 AM EDT / 2020.04.05 1500 UTC
Wind: from the NNE (030 degrees) at 7 MPH (6 KT):0
Visibility: greater than 7 mile(s):0
Temperature: 73 F (23 C)
Dew Point: 53 F (12 C)
Relative Humidity: 49%
Pressure (altimeter): 30.09 in. Hg (1019 hPa)
ob: SBCT 051500Z 03006KT CAVOK 23/12 Q1019
cycle: 15

Station Type Date Time Source
SBCT TAF 2020/04/05 18:58 UTC NOAA

TAF SBCT 051500Z 0518/0618 06007KT 9999 FEW030 TN14/0608Z TX28/0617Z
BECMG 0519/0521 CAVOK
BECMG 0523/0601 32007KT
BECMG 0615/0617 9999 SCT040
RMK PDY

Example: see airport list